Eirunepe, Brazil
Current Conditions -  °F | °C
As of 6:00 PM on Wednesday 22 Oct 2014 (Local Time) from SBTT Reporting Station
Few Clouds Few Clouds  
Wind Chill: 84°   Ceiling: Unl
Heat Index: 94°   Visibility: 6mi
Dew Point: 77°   Wind: 3mph
Humidity: 79%   Direction: 200°SSW
Pressure: 29.8"   Gusts: NA
Location:  6.66°S, 69.87°W
Report Text: SBTT 222200Z 20003KT 9999 FEW020 29/25 Q1009
Loading
Personal Weather Stations






























Interactive Weather Map
Tropical Storm Tracking
New forecast layout! Learn more

10-Day Weather Forecast

Advertisements
Track Severe Weather on mobile